This is the latest recevied weather packets stored in our database for station/object KB9PVH-3. If no packets are shown the sender has not sent any weather packets the latest 10 day(s).
| Time | Temp. | Humidity | Pressure | Rain* | Wind** | Luminosity | Snow |
|---|---|---|---|---|---|---|---|
| 1778167660 | 10.56° C | 41% | 1014.9 hPa | 0 mm | - | - | - |
| 1778166612 | 10.56° C | 46% | 1015.2 hPa | 0 mm | - | - | - |
| 1778165560 | 10° C | 47% | 1015.5 hPa | 0 mm | - | - | - |
| 1778164510 | 8.89° C | 57% | 1015.7 hPa | 0 mm | - | - | - |
| 1778163462 | 7.78° C | 59% | 1016 hPa | 0 mm | - | - | - |
| 1778161362 | 5.56° C | 68% | 1016.1 hPa | 0 mm | - | - | - |
| 1778159259 | 3.89° C | 71% | 1016.3 hPa | 0 mm | - | - | - |
| 1778158208 | 3.33° C | 75% | 1016.8 hPa | 0 mm | - | - | - |
| 1778157158 | 2.78° C | 74% | 1016.6 hPa | 0 mm | - | - | - |
| 1778156137 | 2.22° C | 72% | 1016.7 hPa | 0 mm | - | - | - |
| 1778155142 | 1.11° C | 74% | 1016.5 hPa | 0 mm | - | - | - |
| 1778155087 | 1.11° C | 74% | 1016.5 hPa | 0 mm | - | - | - |
| 1778154042 | 0.56° C | 73% | 1016.1 hPa | 0 mm | - | - | - |
| 1778152992 | 0° C | 74% | 1016.1 hPa | 0 mm | - | - | - |
| 1778152016 | 0° C | 74% | 1016 hPa | 0 mm | - | - | - |
| 1778151938 | 0° C | 74% | 1016 hPa | 0 mm | - | - | - |
| 1778150888 | 0° C | 74% | 1016.1 hPa | 0 mm | - | - | - |
| 1778149838 | 0° C | 74% | 1015.8 hPa | 0 mm | - | - | - |
| 1778148788 | 0° C | 74% | 1015.8 hPa | 0 mm | - | - | - |
| 1778147738 | 0° C | 74% | 1016 hPa | 0 mm | - | - | - |
| 1778146687 | 0° C | 75% | 1015.9 hPa | 0 mm | - | - | - |
| 1778145638 | 0.56° C | 72% | 1015.7 hPa | 0 mm | - | - | - |
| 1778143537 | 0.56° C | 71% | 1015.9 hPa | 0 mm | - | - | - |
| 1778142487 | 0.56° C | 71% | 1016.1 hPa | 0 mm | - | - | - |
| 1778141438 | 0.56° C | 71% | 1015.9 hPa | 0 mm | - | - | - |
* Rain latest hour (hover to see other rain measurements)
** Current wind speed in m/s (hover to see current wind gust speed)